createdAt,value
2023-03-18T00:00:17.661Z,100281.63
2023-03-18T00:03:03.032Z,100282.59
2023-03-18T00:05:48.295Z,100270.06
2023-03-18T00:08:33.823Z,100283.28
2023-03-18T00:11:21.601Z,100294.22
2023-03-18T00:14:08.698Z,100298.03
2023-03-18T00:16:53.964Z,100297.63
2023-03-18T00:19:39.206Z,100293.34
2023-03-18T00:22:24.733Z,100296.94
2023-03-18T00:25:14.023Z,100265.69
2023-03-18T00:27:59.230Z,100275.03
2023-03-18T00:30:44.398Z,100284.94
2023-03-18T00:33:30.295Z,100290.75
2023-03-18T00:36:16.500Z,100296.66
2023-03-18T00:39:03.579Z,100283.06
2023-03-18T00:41:48.892Z,100283.66
2023-03-18T00:44:33.971Z,100284.00
2023-03-18T00:47:19.033Z,100284.44
2023-03-18T00:50:08.785Z,100278.47
2023-03-18T00:52:54.821Z,100292.72
2023-03-18T00:55:40.584Z,100291.78
2023-03-18T00:58:25.741Z,100292.72
2023-03-18T01:01:12.544Z,100290.94
2023-03-18T01:03:58.558Z,100300.97
2023-03-18T01:06:44.132Z,100302.66
2023-03-18T01:09:29.560Z,100298.34
2023-03-18T01:12:15.531Z,100305.59
2023-03-18T01:15:01.084Z,100294.69
2023-03-18T01:17:46.883Z,100284.63
2023-03-18T01:20:32.215Z,100290.97
2023-03-18T01:23:17.949Z,100277.88
2023-03-18T01:26:03.871Z,100264.19
2023-03-18T01:28:49.302Z,100276.69
2023-03-18T01:31:35.709Z,100274.09
2023-03-18T01:34:21.617Z,100272.19
2023-03-18T01:37:07.700Z,100268.84
2023-03-18T01:39:53.781Z,100266.88
2023-03-18T01:42:39.480Z,100267.97
2023-03-18T01:45:30.198Z,100262.72
2023-03-18T01:48:17.744Z,100262.72
2023-03-18T01:51:08.720Z,100264.75
2023-03-18T01:53:57.620Z,100243.91
2023-03-18T01:56:44.785Z,100244.13
2023-03-18T01:59:33.489Z,100258.44
2023-03-18T02:02:19.086Z,100250.84
2023-03-18T02:05:07.893Z,100252.50
2023-03-18T02:07:53.482Z,100254.38
2023-03-18T02:10:39.129Z,100246.44
2023-03-18T02:13:25.272Z,100240.78
2023-03-18T02:16:25.720Z,100238.69
2023-03-18T02:19:39.305Z,100245.69
2023-03-18T02:22:34.249Z,100242.25
2023-03-18T02:25:34.280Z,100231.16
2023-03-18T02:28:24.707Z,100221.97
2023-03-18T02:31:13.019Z,100230.97
2023-03-18T02:34:00.153Z,100231.06
2023-03-18T02:36:46.042Z,100230.56
2023-03-18T02:39:31.556Z,100229.50
2023-03-18T02:42:28.772Z,100237.84
2023-03-18T02:45:41.710Z,100223.53
2023-03-18T02:48:36.626Z,100236.78
2023-03-18T02:51:22.083Z,100248.91
2023-03-18T02:54:13.847Z,100235.97
2023-03-18T02:56:58.863Z,100233.22
2023-03-18T02:59:44.033Z,100248.94
2023-03-18T03:02:29.157Z,100243.63
2023-03-18T03:05:15.397Z,100245.28
2023-03-18T03:08:01.052Z,100249.69
2023-03-18T03:10:47.266Z,100252.44
2023-03-18T03:13:32.734Z,100254.91
2023-03-18T03:16:18.500Z,100251.56
2023-03-18T03:19:04.504Z,100257.53
2023-03-18T03:21:49.456Z,100251.47
2023-03-18T03:24:34.716Z,100252.53
2023-03-18T03:27:19.908Z,100260.38
2023-03-18T03:30:09.654Z,100253.50
2023-03-18T03:32:55.265Z,100248.84
2023-03-18T03:35:41.658Z,100244.69
2023-03-18T03:38:27.385Z,100249.69
2023-03-18T03:41:13.140Z,100254.69
2023-03-18T03:43:58.078Z,100253.75
2023-03-18T03:46:43.100Z,100256.13
2023-03-18T03:49:28.474Z,100249.00
2023-03-18T03:52:13.708Z,100250.06
2023-03-18T03:55:00.689Z,100245.06
2023-03-18T03:57:46.544Z,100253.41
2023-03-18T04:00:33.239Z,100252.56
2023-03-18T04:03:20.084Z,100255.31
2023-03-18T04:06:05.254Z,100257.09
2023-03-18T04:08:50.122Z,100252.56
2023-03-18T04:11:35.145Z,100253.88
2023-03-18T04:14:20.881Z,100253.88
2023-03-18T04:17:06.077Z,100254.75
2023-03-18T04:19:51.420Z,100263.53
2023-03-18T04:22:37.668Z,100267.84
2023-03-18T04:25:22.910Z,100256.97
2023-03-18T04:28:08.657Z,100256.38
2023-03-18T04:30:53.633Z,100260.41
2023-03-18T04:33:38.565Z,100266.38
2023-03-18T04:36:24.201Z,100265.66
2023-03-18T04:39:09.639Z,100262.53
2023-03-18T04:41:57.033Z,100245.72
2023-03-18T04:44:42.522Z,100263.72
2023-03-18T04:47:28.254Z,100261.84
2023-03-18T04:50:14.084Z,100250.75
2023-03-18T04:53:00.186Z,100258.25
2023-03-18T04:55:45.152Z,100256.81
2023-03-18T04:58:30.889Z,100252.53
2023-03-18T05:01:15.875Z,100249.09
2023-03-18T05:04:01.458Z,100243.63
2023-03-18T05:06:46.737Z,100260.16
2023-03-18T05:09:32.073Z,100256.47
2023-03-18T05:12:17.443Z,100252.94
2023-03-18T05:15:03.966Z,100244.94
2023-03-18T05:17:49.039Z,100244.22
2023-03-18T05:20:34.091Z,100254.47
2023-03-18T05:23:19.367Z,100258.84
2023-03-18T05:26:05.682Z,100259.47
2023-03-18T05:28:50.907Z,100243.50
2023-03-18T05:31:37.137Z,100263.03
2023-03-18T05:34:22.286Z,100263.03
2023-03-18T05:37:10.111Z,100252.56
2023-03-18T05:39:55.459Z,100241.50
2023-03-18T05:42:54.889Z,100222.09
2023-03-18T05:45:41.205Z,100244.84
2023-03-18T05:48:27.059Z,100257.44
2023-03-18T05:51:13.924Z,100256.69
2023-03-18T05:53:59.104Z,100256.09
2023-03-18T05:56:45.534Z,100254.66
2023-03-18T05:59:31.539Z,100257.25
2023-03-18T06:02:16.847Z,100239.50
2023-03-18T06:05:02.117Z,100249.53
2023-03-18T06:07:47.655Z,100254.78
2023-03-18T06:10:33.457Z,100252.25
2023-03-18T06:13:18.824Z,100254.38
2023-03-18T06:16:04.254Z,100248.22
2023-03-18T06:18:49.621Z,100249.16
2023-03-18T06:21:34.886Z,100255.09
2023-03-18T06:24:20.117Z,100254.38
2023-03-18T06:27:05.579Z,100238.63
2023-03-18T06:29:51.019Z,100249.59
2023-03-18T06:32:36.822Z,100239.59
2023-03-18T06:35:21.855Z,100247.91
2023-03-18T06:38:08.761Z,100259.84
2023-03-18T06:40:54.640Z,100257.31
2023-03-18T06:43:39.556Z,100257.00
2023-03-18T06:46:25.403Z,100263.19
2023-03-18T06:49:11.244Z,100255.66
2023-03-18T06:51:56.460Z,100255.66
2023-03-18T06:54:41.737Z,100254.09
2023-03-18T06:57:27.659Z,100266.47
2023-03-18T07:00:13.601Z,100264.91
2023-03-18T07:02:58.809Z,100261.59
2023-03-18T07:05:43.617Z,100265.84
2023-03-18T07:08:29.299Z,100265.25
2023-03-18T07:11:14.713Z,100265.69
2023-03-18T07:14:00.047Z,100262.34
2023-03-18T07:16:45.955Z,100270.59
2023-03-18T07:19:33.180Z,100278.34
2023-03-18T07:22:18.349Z,100277.59
2023-03-18T07:25:05.005Z,100271.88
2023-03-18T07:27:50.378Z,100275.22
2023-03-18T07:30:35.728Z,100277.09
2023-03-18T07:33:21.057Z,100277.94
2023-03-18T07:36:06.919Z,100280.03
2023-03-18T07:38:52.341Z,100284.34
2023-03-18T07:41:38.144Z,100279.31
2023-03-18T07:44:23.917Z,100286.09
2023-03-18T07:47:09.308Z,100269.91
2023-03-18T07:49:54.612Z,100279.16
2023-03-18T07:52:39.909Z,100281.66
2023-03-18T07:55:25.392Z,100279.53
2023-03-18T07:58:10.315Z,100271.38
2023-03-18T08:00:55.618Z,100277.44
2023-03-18T08:03:40.914Z,100286.00
2023-03-18T08:06:26.409Z,100279.94
2023-03-18T08:09:11.445Z,100282.22
2023-03-18T08:11:56.476Z,100284.84
2023-03-18T08:14:41.830Z,100257.31
2023-03-18T08:17:27.135Z,100275.72
2023-03-18T08:20:12.750Z,100275.72
2023-03-18T08:22:57.938Z,100273.19
2023-03-18T08:25:43.416Z,100270.59
2023-03-18T08:28:28.557Z,100273.69
2023-03-18T08:31:14.394Z,100271.34
2023-03-18T08:34:00.558Z,100268.00
2023-03-18T08:36:46.240Z,100266.22
2023-03-18T08:39:32.142Z,100265.38
2023-03-18T08:42:17.600Z,100262.91
2023-03-18T08:45:02.851Z,100267.06
2023-03-18T08:47:48.508Z,100268.50
2023-03-18T08:50:35.697Z,100271.63
2023-03-18T08:53:20.961Z,100275.56
2023-03-18T08:56:07.761Z,100275.09
2023-03-18T08:58:53.556Z,100273.34
2023-03-18T09:01:39.761Z,100275.69
2023-03-18T09:04:25.952Z,100272.56
2023-03-18T09:07:13.143Z,100278.50
2023-03-18T09:09:58.246Z,100274.97
2023-03-18T09:12:44.234Z,100269.50
2023-03-18T09:15:29.356Z,100267.94
2023-03-18T09:18:16.476Z,100265.56
2023-03-18T09:21:01.380Z,100265.09
2023-03-18T09:23:46.267Z,100263.72
2023-03-18T09:26:31.294Z,100262.88
2023-03-18T09:29:16.502Z,100257.16
2023-03-18T09:32:01.591Z,100262.63
2023-03-18T09:34:46.815Z,100261.56
2023-03-18T09:37:32.334Z,100254.88
2023-03-18T09:40:44.082Z,100250.06
2023-03-18T09:43:35.898Z,100240.41
2023-03-18T09:46:54.721Z,100246.00
2023-03-18T09:49:57.712Z,100256.72
2023-03-18T09:52:52.485Z,100241.38
2023-03-18T09:55:50.445Z,100257.69
2023-03-18T09:59:06.260Z,100253.41
2023-03-18T10:01:54.609Z,100264.13
2023-03-18T10:04:45.216Z,100255.41
2023-03-18T10:07:37.779Z,100268.31
2023-03-18T10:10:46.157Z,100277.44
2023-03-18T10:13:37.230Z,100271.69
2023-03-18T10:16:28.422Z,100276.22
2023-03-18T10:19:13.853Z,100265.00
2023-03-18T10:22:30.452Z,100273.91
2023-03-18T10:25:47.411Z,100268.41
2023-03-18T10:28:42.914Z,100275.47
2023-03-18T10:31:30.022Z,100280.34
2023-03-18T10:34:22.717Z,100276.91
2023-03-18T10:37:19.118Z,100266.53
2023-03-18T10:40:13.444Z,100277.50
2023-03-18T10:42:58.595Z,100276.44
2023-03-18T10:45:46.870Z,100291.44
2023-03-18T10:48:40.689Z,100286.31
2023-03-18T10:51:51.053Z,100284.19
2023-03-18T10:54:46.755Z,100282.38
2023-03-18T10:57:32.639Z,100287.88
2023-03-18T11:00:30.396Z,100287.38
2023-03-18T11:03:25.061Z,100275.00
2023-03-18T11:06:20.040Z,100287.75
2023-03-18T11:09:09.286Z,100287.75
2023-03-18T11:12:02.777Z,100291.69
2023-03-18T11:14:49.964Z,100292.50
2023-03-18T11:17:37.176Z,100289.41
2023-03-18T11:20:44.187Z,100290.13
2023-03-18T11:23:48.473Z,100285.72
2023-03-18T11:26:47.004Z,100292.25
2023-03-18T11:29:35.335Z,100285.59
2023-03-18T11:32:34.512Z,100288.81
2023-03-18T11:35:40.019Z,100280.69
2023-03-18T11:38:29.373Z,100287.72
2023-03-18T11:41:23.807Z,100293.19
2023-03-18T11:44:18.431Z,100290.06
2023-03-18T11:47:10.825Z,100296.06
2023-03-18T11:49:57.454Z,100292.22
2023-03-18T11:52:57.823Z,100290.69
2023-03-18T11:56:00.893Z,100281.66
2023-03-18T11:59:03.256Z,100294.03
2023-03-18T12:01:55.726Z,100266.00
2023-03-18T12:04:59.494Z,100300.75
2023-03-18T12:08:09.801Z,100291.19
2023-03-18T12:11:06.472Z,100291.59
2023-03-18T12:14:26.854Z,100280.66
2023-03-18T12:17:27.215Z,100281.00
2023-03-18T12:20:30.912Z,100293.34
2023-03-18T12:23:51.930Z,100278.38
2023-03-18T12:26:51.119Z,100296.06
2023-03-18T12:29:59.195Z,100304.03
2023-03-18T12:33:24.160Z,100298.19
2023-03-18T12:36:27.864Z,100301.81
2023-03-18T12:39:31.268Z,100317.78
2023-03-18T12:42:44.704Z,100325.31
2023-03-18T12:45:40.869Z,100321.50
2023-03-18T12:48:43.601Z,100325.56
2023-03-18T12:51:36.306Z,100323.25
2023-03-18T12:54:29.232Z,100302.69
2023-03-18T12:57:23.521Z,100322.56
2023-03-18T13:00:37.069Z,100305.00
2023-03-18T13:03:34.235Z,100324.31
2023-03-18T13:06:39.629Z,100325.66
2023-03-18T13:09:37.139Z,100316.44
2023-03-18T13:12:35.346Z,100312.22
2023-03-18T13:15:38.185Z,100324.66
2023-03-18T13:18:50.992Z,100325.13
2023-03-18T13:21:42.899Z,100319.22
2023-03-18T13:24:48.070Z,100326.84
2023-03-18T13:28:05.344Z,100321.78
2023-03-18T13:30:53.988Z,100322.03
2023-03-18T13:33:54.941Z,100321.22
2023-03-18T13:37:24.664Z,100324.22
2023-03-18T13:40:19.201Z,100336.75
2023-03-18T13:43:05.802Z,100329.66
2023-03-18T13:45:53.580Z,100336.06
2023-03-18T13:48:41.488Z,100331.88
2023-03-18T13:51:29.513Z,100322.66
2023-03-18T13:54:20.642Z,100324.78
2023-03-18T13:57:24.459Z,100337.88
2023-03-18T14:00:23.283Z,100332.88
2023-03-18T14:03:19.100Z,100335.34
2023-03-18T14:06:04.222Z,100335.97
2023-03-18T14:08:51.975Z,100334.88
2023-03-18T14:11:45.439Z,100331.53
2023-03-18T14:14:57.004Z,100338.81
2023-03-18T14:17:47.724Z,100334.72
2023-03-18T14:20:42.285Z,100331.19
2023-03-18T14:23:41.879Z,100338.22
2023-03-18T14:26:27.311Z,100333.81
2023-03-18T14:29:22.611Z,100332.47
2023-03-18T14:32:22.859Z,100337.34
2023-03-18T14:35:17.188Z,100342.88
2023-03-18T14:38:06.456Z,100340.16
2023-03-18T14:40:55.870Z,100339.59
2023-03-18T14:43:51.741Z,100330.22
2023-03-18T14:46:43.351Z,100338.94
2023-03-18T14:49:35.997Z,100334.88
2023-03-18T14:52:39.563Z,100334.28
2023-03-18T14:55:31.156Z,100323.72
2023-03-18T14:58:19.016Z,100338.09
2023-03-18T15:01:09.783Z,100333.97
2023-03-18T15:03:55.996Z,100334.38
2023-03-18T15:06:41.920Z,100327.44
2023-03-18T15:09:30.741Z,100332.97
2023-03-18T15:12:26.328Z,100334.91
2023-03-18T15:15:15.557Z,100330.03
2023-03-18T15:18:18.551Z,100322.97
2023-03-18T15:21:22.382Z,100330.47
2023-03-18T15:24:09.478Z,100340.81
2023-03-18T15:27:00.240Z,100340.66
2023-03-18T15:29:49.005Z,100336.75
2023-03-18T15:32:45.605Z,100345.91
2023-03-18T15:35:32.026Z,100343.41
2023-03-18T15:38:19.647Z,100343.56
2023-03-18T15:41:12.114Z,100349.28
2023-03-18T15:43:57.398Z,100336.97
2023-03-18T15:46:46.781Z,100332.38
2023-03-18T15:49:33.268Z,100339.34
2023-03-18T15:52:25.166Z,100343.78
2023-03-18T15:55:31.908Z,100341.03
2023-03-18T15:58:24.310Z,100341.16
2023-03-18T16:01:16.408Z,100342.72
2023-03-18T16:04:03.255Z,100357.25
2023-03-18T16:06:48.914Z,100347.69
2023-03-18T16:09:34.860Z,100349.91
2023-03-18T16:12:22.806Z,100350.19
2023-03-18T16:15:13.990Z,100352.09
2023-03-18T16:17:59.258Z,100353.78
2023-03-18T16:20:46.570Z,100353.22
2023-03-18T16:23:31.659Z,100344.88
2023-03-18T16:26:18.044Z,100359.59
2023-03-18T16:29:11.765Z,100358.34
2023-03-18T16:31:57.192Z,100367.69
2023-03-18T16:34:43.701Z,100361.94
2023-03-18T16:37:30.174Z,100360.13
2023-03-18T16:40:17.044Z,100361.75
2023-03-18T16:43:02.444Z,100355.13
2023-03-18T16:45:51.728Z,100358.41
2023-03-18T16:48:36.856Z,100375.97
2023-03-18T16:51:22.470Z,100366.41
2023-03-18T16:54:21.129Z,100369.41
2023-03-18T16:57:10.388Z,100384.16
2023-03-18T16:59:56.474Z,100384.69
2023-03-18T17:02:41.691Z,100379.50
2023-03-18T17:05:27.746Z,100394.94
2023-03-18T17:08:13.125Z,100391.03
2023-03-18T17:11:02.138Z,100397.28
2023-03-18T17:13:47.500Z,100401.13
2023-03-18T17:16:33.862Z,100407.47
2023-03-18T17:19:22.884Z,100414.31
2023-03-18T17:22:25.896Z,100419.81
2023-03-18T17:25:11.302Z,100429.34
2023-03-18T17:27:58.743Z,100421.25
2023-03-18T17:30:44.012Z,100435.94
2023-03-18T17:33:32.653Z,100439.06
2023-03-18T17:36:18.241Z,100435.50
2023-03-18T17:39:04.262Z,100451.09
2023-03-18T17:41:49.486Z,100454.94
2023-03-18T17:44:34.769Z,100454.06
2023-03-18T17:47:20.166Z,100458.97
2023-03-18T17:50:05.962Z,100463.63
2023-03-18T17:52:52.728Z,100467.69
2023-03-18T17:55:38.020Z,100468.03
2023-03-18T17:58:27.447Z,100477.56
2023-03-18T18:01:18.322Z,100479.47
2023-03-18T18:04:03.500Z,100482.56
2023-03-18T18:06:49.386Z,100478.03
2023-03-18T18:09:34.580Z,100483.84
2023-03-18T18:12:25.371Z,100485.34
2023-03-18T18:15:27.846Z,100491.91
2023-03-18T18:18:24.283Z,100491.53
2023-03-18T18:21:16.978Z,100494.63
2023-03-18T18:24:01.971Z,100502.63
2023-03-18T18:26:46.954Z,100507.50
2023-03-18T18:29:34.954Z,100506.19
2023-03-18T18:32:22.612Z,100513.06
2023-03-18T18:35:13.708Z,100518.53
2023-03-18T18:37:58.813Z,100521.50
2023-03-18T18:40:45.030Z,100522.66
2023-03-18T18:43:30.959Z,100512.75
2023-03-18T18:46:16.304Z,100522.03
2023-03-18T18:49:01.804Z,100524.38
2023-03-18T18:51:48.644Z,100519.53
2023-03-18T18:54:33.553Z,100521.66
2023-03-18T18:57:39.644Z,100523.22
2023-03-18T19:00:25.209Z,100528.78
2023-03-18T19:03:24.363Z,100530.66
2023-03-18T19:06:27.699Z,100518.97
2023-03-18T19:09:21.906Z,100532.56
2023-03-18T19:12:15.167Z,100529.94
2023-03-18T19:15:01.135Z,100537.16
2023-03-18T19:17:46.492Z,100526.09
2023-03-18T19:20:31.509Z,100530.72
2023-03-18T19:23:24.781Z,100540.53
2023-03-18T19:26:13.255Z,100541.19
2023-03-18T19:28:59.916Z,100552.28
2023-03-18T19:31:45.618Z,100552.19
2023-03-18T19:34:32.444Z,100553.44
2023-03-18T19:37:28.441Z,100552.84
2023-03-18T19:40:23.828Z,100564.66
2023-03-18T19:43:17.877Z,100570.94
2023-03-18T19:46:03.069Z,100567.16
2023-03-18T19:48:48.172Z,100568.19
2023-03-18T19:51:33.490Z,100576.69
2023-03-18T19:54:36.684Z,100572.91
2023-03-18T19:57:28.731Z,100588.47
2023-03-18T20:00:23.629Z,100589.75
2023-03-18T20:03:15.715Z,100589.19
2023-03-18T20:06:00.836Z,100590.44
2023-03-18T20:08:46.035Z,100592.66
2023-03-18T20:11:31.347Z,100596.38
2023-03-18T20:14:22.809Z,100599.22
2023-03-18T20:17:23.290Z,100602.03
2023-03-18T20:20:30.611Z,100606.31
2023-03-18T20:23:22.284Z,100617.09
2023-03-18T20:26:07.536Z,100601.97
2023-03-18T20:28:55.832Z,100617.38
2023-03-18T20:31:40.814Z,100622.06
2023-03-18T20:34:26.169Z,100622.47
2023-03-18T20:37:20.023Z,100624.34
2023-03-18T20:40:07.438Z,100621.38
2023-03-18T20:42:53.135Z,100628.66
2023-03-18T20:45:38.583Z,100641.38
2023-03-18T20:48:24.013Z,100621.22
2023-03-18T20:51:19.934Z,100626.25
2023-03-18T20:54:27.554Z,100641.09
2023-03-18T20:57:13.003Z,100624.53
2023-03-18T20:59:58.447Z,100640.94
2023-03-18T21:02:44.168Z,100630.38
2023-03-18T21:05:29.590Z,100648.50
2023-03-18T21:08:14.944Z,100643.44
2023-03-18T21:11:02.148Z,100648.84
2023-03-18T21:13:48.210Z,100656.75
2023-03-18T21:16:36.447Z,100640.09
2023-03-18T21:19:22.490Z,100652.19
2023-03-18T21:22:11.229Z,100652.13
2023-03-18T21:24:57.847Z,100658.28
2023-03-18T21:27:42.826Z,100653.97
2023-03-18T21:30:28.336Z,100661.63
2023-03-18T21:33:19.640Z,100661.06
2023-03-18T21:36:06.490Z,100667.66
2023-03-18T21:38:51.803Z,100665.69
2023-03-18T21:41:37.167Z,100671.94
2023-03-18T21:44:22.888Z,100666.16
2023-03-18T21:47:13.130Z,100668.19
2023-03-18T21:49:57.934Z,100665.03
2023-03-18T21:52:42.764Z,100663.28
2023-03-18T21:55:27.721Z,100666.72
2023-03-18T21:58:16.850Z,100668.56
2023-03-18T22:01:02.228Z,100664.38
2023-03-18T22:03:53.521Z,100663.44
2023-03-18T22:06:38.689Z,100669.00
2023-03-18T22:09:26.610Z,100668.53
2023-03-18T22:12:14.331Z,100668.72
2023-03-18T22:15:00.758Z,100674.13
2023-03-18T22:17:46.171Z,100670.75
2023-03-18T22:20:32.832Z,100670.75
2023-03-18T22:23:23.350Z,100682.09
2023-03-18T22:26:13.610Z,100679.66
2023-03-18T22:28:58.625Z,100678.00
2023-03-18T22:31:43.625Z,100686.75
2023-03-18T22:34:28.921Z,100664.38
2023-03-18T22:37:25.170Z,100679.50
2023-03-18T22:40:16.434Z,100670.00
2023-03-18T22:43:02.215Z,100676.81
2023-03-18T22:45:47.176Z,100680.25
2023-03-18T22:48:33.080Z,100676.81
2023-03-18T22:51:27.481Z,100678.66
2023-03-18T22:54:18.928Z,100680.34
2023-03-18T22:57:04.052Z,100688.84
2023-03-18T22:59:49.164Z,100692.19
2023-03-18T23:02:34.405Z,100692.19
2023-03-18T23:05:23.501Z,100699.66
2023-03-18T23:08:09.067Z,100694.25
2023-03-18T23:10:56.894Z,100700.69
2023-03-18T23:13:44.914Z,100699.75
2023-03-18T23:16:30.021Z,100692.53
2023-03-18T23:19:15.488Z,100701.69
2023-03-18T23:22:00.530Z,100700.28
2023-03-18T23:24:45.910Z,100707.28
2023-03-18T23:27:31.459Z,100699.63
2023-03-18T23:30:16.670Z,100710.63
2023-03-18T23:33:02.517Z,100707.09
2023-03-18T23:35:48.200Z,100705.41
2023-03-18T23:38:34.044Z,100701.03
2023-03-18T23:41:18.884Z,100708.09
2023-03-18T23:44:04.133Z,100703.72
2023-03-18T23:46:49.368Z,100707.16
2023-03-18T23:49:41.476Z,100709.59
2023-03-18T23:52:26.490Z,100706.16
2023-03-18T23:55:30.500Z,100701.78
2023-03-18T23:58:17.012Z,100699.84
